VTREG EKVG-EGPH
Flight info
| Callsign | VTREG |
|---|---|
| Flight time | 1h 40m |
| Altitude | 31000 |
| Route | SUDUR DCT NALAN/N0280F310 DCT BAMRA DCT WIK DCT ADN/N0274F240 P600 PTH |
| Aircraft | SF50/L-BDGRSWY/LB2U2 |
Departure
| Time | 2026-04-24 18:57 |
|---|---|
| Airport | Vágar Airport (EKVG) |
Arrival
| Time | 2026-04-24 20:37 |
|---|---|
| Airport | Edinburgh Airport (EGPH) |
| Time | Latitude | Longitude | Altitude | Speed | Heading |
|---|---|---|---|---|---|
| 2026-04-24 18:54 | 62.06375 | -7.27787 | 290 ft | 11 kts | 117° |
| 2026-04-24 18:55 | 62.06260 | -7.27343 | 277 ft | 20 kts | 117° |
| 2026-04-24 18:55 | 62.06200 | -7.27087 | 270 ft | 19 kts | 117° |
| 2026-04-24 18:55 | 62.06139 | -7.26883 | 267 ft | 12 kts | 124° |
| 2026-04-24 18:56 | 62.06143 | -7.26853 | 266 ft | 0 kts | 297° |
| 2026-04-24 18:56 | 62.06146 | -7.26865 | 267 ft | 11 kts | 297° |
| 2026-04-24 18:56 | 62.06285 | -7.27427 | 280 ft | 72 kts | 298° |
| 2026-04-24 18:56 | 62.06480 | -7.28193 | 352 ft | 98 kts | 306° |
| 2026-04-24 18:57 | 62.06824 | -7.30036 | 941 ft | 106 kts | 291° |
| 2026-04-24 18:57 | 62.06995 | -7.30961 | 1389 ft | 99 kts | 304° |
| 2026-04-24 18:57 | 62.07482 | -7.32929 | 1781 ft | 126 kts | 293° |
| 2026-04-24 18:57 | 62.07726 | -7.34917 | 2152 ft | 151 kts | 289° |
| 2026-04-24 18:58 | 62.07975 | -7.37139 | 2846 ft | 153 kts | 288° |
| 2026-04-24 18:58 | 62.08197 | -7.39358 | 3545 ft | 154 kts | 287° |
| 2026-04-24 18:58 | 62.08418 | -7.41602 | 4206 ft | 154 kts | 287° |
| 2026-04-24 18:58 | 62.08562 | -7.43089 | 4638 ft | 155 kts | 287° |
| 2026-04-24 18:59 | 62.08778 | -7.45339 | 5253 ft | 156 kts | 285° |
| 2026-04-24 18:59 | 62.08841 | -7.48447 | 6023 ft | 160 kts | 274° |
| 2026-04-24 18:59 | 62.08689 | -7.50818 | 6587 ft | 164 kts | 265° |
| 2026-04-24 18:59 | 62.08355 | -7.53166 | 7104 ft | 168 kts | 257° |
| 2026-04-24 19:00 | 62.07833 | -7.55425 | 7619 ft | 171 kts | 248° |
| 2026-04-24 19:00 | 62.07128 | -7.57509 | 8113 ft | 176 kts | 239° |
| 2026-04-24 19:00 | 62.06244 | -7.59359 | 8613 ft | 181 kts | 229° |
| 2026-04-24 19:00 | 62.05186 | -7.60903 | 9100 ft | 187 kts | 219° |
| 2026-04-24 19:01 | 62.03971 | -7.62044 | 9575 ft | 194 kts | 208° |
| 2026-04-24 19:01 | 62.02632 | -7.62702 | 10048 ft | 201 kts | 197° |
| 2026-04-24 19:01 | 62.01209 | -7.62795 | 10469 ft | 209 kts | 184° |
| 2026-04-24 19:01 | 61.99751 | -7.62246 | 10855 ft | 217 kts | 171° |
| 2026-04-24 19:02 | 61.98802 | -7.61513 | 11121 ft | 221 kts | 161° |
| 2026-04-24 19:02 | 61.97034 | -7.59189 | 11648 ft | 226 kts | 149° |
| 2026-04-24 19:02 | 61.95726 | -7.57346 | 12055 ft | 226 kts | 150° |
| 2026-04-24 19:02 | 61.94851 | -7.56128 | 12328 ft | 227 kts | 149° |
| 2026-04-24 19:03 | 61.93082 | -7.53639 | 12891 ft | 229 kts | 149° |
| 2026-04-24 19:03 | 61.91745 | -7.51762 | 13301 ft | 230 kts | 149° |
| 2026-04-24 19:03 | 61.90409 | -7.49887 | 13713 ft | 232 kts | 149° |
| 2026-04-24 19:03 | 61.89061 | -7.47994 | 14129 ft | 233 kts | 149° |
| 2026-04-24 19:04 | 61.87708 | -7.46101 | 14497 ft | 234 kts | 149° |
| 2026-04-24 19:04 | 61.86343 | -7.44192 | 14877 ft | 235 kts | 149° |
| 2026-04-24 19:04 | 61.84976 | -7.42282 | 15246 ft | 236 kts | 149° |
| 2026-04-24 19:04 | 61.83598 | -7.40365 | 15622 ft | 237 kts | 148° |
| 2026-04-24 19:05 | 61.82214 | -7.38436 | 15991 ft | 239 kts | 148° |
| 2026-04-24 19:05 | 61.80841 | -7.36527 | 16360 ft | 240 kts | 148° |
| 2026-04-24 19:05 | 61.79442 | -7.34583 | 16734 ft | 241 kts | 148° |
| 2026-04-24 19:05 | 61.78035 | -7.32629 | 17112 ft | 242 kts | 148° |
| 2026-04-24 19:06 | 61.76623 | -7.30674 | 17483 ft | 244 kts | 148° |
| 2026-04-24 19:06 | 61.75202 | -7.28705 | 17870 ft | 245 kts | 148° |
| 2026-04-24 19:06 | 61.73773 | -7.26727 | 18234 ft | 247 kts | 148° |
| 2026-04-24 19:06 | 61.72333 | -7.24738 | 18611 ft | 248 kts | 148° |
| 2026-04-24 19:07 | 61.70885 | -7.22739 | 18953 ft | 249 kts | 148° |
| 2026-04-24 19:07 | 61.69431 | -7.20732 | 19287 ft | 250 kts | 148° |
| 2026-04-24 19:07 | 61.68471 | -7.19406 | 19509 ft | 250 kts | 148° |
| 2026-04-24 19:07 | 61.66511 | -7.16709 | 19978 ft | 252 kts | 148° |
| 2026-04-24 19:08 | 61.65044 | -7.14688 | 20325 ft | 253 kts | 148° |
| 2026-04-24 19:08 | 61.63567 | -7.12662 | 20675 ft | 254 kts | 148° |
| 2026-04-24 19:08 | 61.62085 | -7.10627 | 21030 ft | 255 kts | 148° |
| 2026-04-24 19:08 | 61.60596 | -7.08583 | 21401 ft | 255 kts | 147° |
| 2026-04-24 19:09 | 61.59223 | -7.06234 | 21769 ft | 255 kts | 137° |
| 2026-04-24 19:09 | 61.57905 | -7.03755 | 22173 ft | 254 kts | 138° |
| 2026-04-24 19:09 | 61.56578 | -7.01324 | 22569 ft | 253 kts | 139° |
| 2026-04-24 19:09 | 61.55253 | -6.98901 | 22965 ft | 252 kts | 138° |
| 2026-04-24 19:10 | 61.53932 | -6.96478 | 23356 ft | 252 kts | 138° |
| 2026-04-24 19:10 | 61.52630 | -6.94099 | 23744 ft | 251 kts | 138° |
| 2026-04-24 19:10 | 61.51298 | -6.91662 | 24087 ft | 250 kts | 138° |
| 2026-04-24 19:10 | 61.50003 | -6.89300 | 24399 ft | 250 kts | 138° |
| 2026-04-24 19:11 | 61.48693 | -6.86910 | 24710 ft | 250 kts | 139° |
| 2026-04-24 19:11 | 61.47383 | -6.84523 | 25026 ft | 249 kts | 139° |
| 2026-04-24 19:11 | 61.46075 | -6.82147 | 25340 ft | 249 kts | 139° |
| 2026-04-24 19:11 | 61.44770 | -6.79773 | 25649 ft | 249 kts | 139° |
| 2026-04-24 19:12 | 61.43464 | -6.77401 | 25944 ft | 249 kts | 139° |
| 2026-04-24 19:12 | 61.42152 | -6.75026 | 26260 ft | 248 kts | 139° |
| 2026-04-24 19:12 | 61.40849 | -6.72666 | 26552 ft | 248 kts | 139° |
| 2026-04-24 19:12 | 61.39545 | -6.70308 | 26850 ft | 247 kts | 139° |
| 2026-04-24 19:13 | 61.38684 | -6.68754 | 27049 ft | 247 kts | 139° |
| 2026-04-24 19:13 | 61.36944 | -6.65611 | 27438 ft | 247 kts | 139° |
| 2026-04-24 19:13 | 61.35647 | -6.63267 | 27743 ft | 247 kts | 139° |
| 2026-04-24 19:13 | 61.34349 | -6.60929 | 28022 ft | 247 kts | 139° |
| 2026-04-24 19:14 | 61.33050 | -6.58590 | 28315 ft | 246 kts | 139° |
| 2026-04-24 19:14 | 61.31754 | -6.56259 | 28599 ft | 246 kts | 139° |
| 2026-04-24 19:14 | 61.30458 | -6.53932 | 28889 ft | 246 kts | 139° |
| 2026-04-24 19:14 | 61.29180 | -6.51640 | 29167 ft | 246 kts | 139° |
| 2026-04-24 19:15 | 61.27871 | -6.49293 | 29451 ft | 245 kts | 139° |
| 2026-04-24 19:15 | 61.26577 | -6.46978 | 29736 ft | 245 kts | 139° |
| 2026-04-24 19:15 | 61.25284 | -6.44666 | 30014 ft | 245 kts | 139° |
| 2026-04-24 19:15 | 61.23993 | -6.42359 | 30286 ft | 244 kts | 139° |
| 2026-04-24 19:16 | 61.21415 | -6.37762 | 30758 ft | 244 kts | 139° |
| 2026-04-24 19:16 | 61.20122 | -6.35462 | 30977 ft | 245 kts | 140° |
| 2026-04-24 19:16 | 61.18846 | -6.33192 | 31191 ft | 245 kts | 140° |
| 2026-04-24 19:17 | 61.17550 | -6.30892 | 31299 ft | 251 kts | 140° |
| 2026-04-24 19:17 | 61.16191 | -6.28487 | 31316 ft | 260 kts | 140° |
| 2026-04-24 19:17 | 61.14786 | -6.26002 | 31313 ft | 269 kts | 140° |
| 2026-04-24 19:17 | 61.13341 | -6.23446 | 31310 ft | 278 kts | 140° |
| 2026-04-24 19:18 | 61.11854 | -6.20821 | 31314 ft | 285 kts | 140° |
| 2026-04-24 19:18 | 61.10332 | -6.18136 | 31315 ft | 291 kts | 140° |
| 2026-04-24 19:18 | 61.09304 | -6.16326 | 31314 ft | 294 kts | 140° |
| 2026-04-24 19:18 | 61.07715 | -6.13529 | 31312 ft | 299 kts | 140° |
| 2026-04-24 19:19 | 61.04501 | -6.07884 | 31312 ft | 306 kts | 140° |
| 2026-04-24 19:19 | 61.01220 | -6.02137 | 31311 ft | 312 kts | 140° |
| 2026-04-24 19:20 | 60.97726 | -5.96840 | 31311 ft | 315 kts | 148° |
| 2026-04-24 19:20 | 60.94048 | -5.91788 | 31312 ft | 320 kts | 147° |
| 2026-04-24 19:21 | 60.90326 | -5.86654 | 31316 ft | 324 kts | 147° |
| 2026-04-24 19:21 | 60.86557 | -5.81480 | 31314 ft | 328 kts | 147° |
| 2026-04-24 19:22 | 60.82744 | -5.76260 | 31315 ft | 331 kts | 147° |
| 2026-04-24 19:22 | 60.78896 | -5.71006 | 31311 ft | 331 kts | 147° |
| 2026-04-24 19:23 | 60.75071 | -5.65800 | 31306 ft | 330 kts | 147° |
| 2026-04-24 19:23 | 60.71274 | -5.60647 | 31306 ft | 330 kts | 147° |
| 2026-04-24 19:24 | 60.67450 | -5.55472 | 31307 ft | 330 kts | 147° |
| 2026-04-24 19:24 | 60.63624 | -5.50309 | 31306 ft | 329 kts | 147° |
| 2026-04-24 19:25 | 60.59793 | -5.45156 | 31307 ft | 329 kts | 147° |
| 2026-04-24 19:25 | 60.55975 | -5.40038 | 31308 ft | 329 kts | 147° |
| 2026-04-24 19:26 | 60.52146 | -5.34918 | 31304 ft | 329 kts | 147° |
| 2026-04-24 19:26 | 60.48318 | -5.29814 | 31305 ft | 329 kts | 147° |
| 2026-04-24 19:27 | 60.44513 | -5.24756 | 31305 ft | 329 kts | 147° |
| 2026-04-24 19:27 | 60.40686 | -5.19681 | 31306 ft | 328 kts | 147° |
| 2026-04-24 19:28 | 60.36872 | -5.14639 | 31305 ft | 328 kts | 147° |
| 2026-04-24 19:28 | 60.33051 | -5.09602 | 31306 ft | 327 kts | 147° |
| 2026-04-24 19:29 | 60.27328 | -5.02083 | 31305 ft | 327 kts | 147° |
| 2026-04-24 19:30 | 60.23512 | -4.97086 | 31306 ft | 326 kts | 147° |
| 2026-04-24 19:30 | 60.19702 | -4.92110 | 31301 ft | 326 kts | 148° |
| 2026-04-24 19:31 | 60.15887 | -4.87142 | 31299 ft | 328 kts | 148° |
| 2026-04-24 19:31 | 60.12046 | -4.82155 | 31303 ft | 328 kts | 148° |
| 2026-04-24 19:32 | 60.08207 | -4.77184 | 31300 ft | 329 kts | 148° |
| 2026-04-24 19:32 | 60.04349 | -4.72204 | 31299 ft | 330 kts | 148° |
| 2026-04-24 19:33 | 60.00515 | -4.67267 | 31300 ft | 330 kts | 149° |
| 2026-04-24 19:33 | 59.96641 | -4.62294 | 31301 ft | 331 kts | 149° |
| 2026-04-24 19:34 | 59.92766 | -4.57336 | 31302 ft | 331 kts | 149° |
| 2026-04-24 19:34 | 59.88888 | -4.52387 | 31297 ft | 332 kts | 149° |
| 2026-04-24 19:35 | 59.84992 | -4.47429 | 31293 ft | 333 kts | 149° |
| 2026-04-24 19:35 | 59.81082 | -4.42467 | 31293 ft | 334 kts | 150° |
| 2026-04-24 19:36 | 59.77157 | -4.37501 | 31290 ft | 335 kts | 150° |
| 2026-04-24 19:36 | 59.73216 | -4.32528 | 31295 ft | 336 kts | 150° |
| 2026-04-24 19:37 | 59.69278 | -4.27573 | 31293 ft | 337 kts | 151° |
| 2026-04-24 19:37 | 59.65308 | -4.22592 | 31291 ft | 338 kts | 151° |
| 2026-04-24 19:38 | 59.61324 | -4.17604 | 31292 ft | 339 kts | 151° |
| 2026-04-24 19:38 | 59.57321 | -4.12608 | 31291 ft | 340 kts | 152° |
| 2026-04-24 19:39 | 59.53313 | -4.07621 | 31290 ft | 340 kts | 152° |
| 2026-04-24 19:39 | 59.49297 | -4.02637 | 31290 ft | 341 kts | 152° |
| 2026-04-24 19:40 | 59.45284 | -3.97670 | 31288 ft | 341 kts | 152° |
| 2026-04-24 19:40 | 59.41165 | -3.93309 | 31295 ft | 337 kts | 161° |
| 2026-04-24 19:41 | 59.36889 | -3.89462 | 31289 ft | 339 kts | 160° |
| 2026-04-24 19:41 | 59.32602 | -3.85613 | 31294 ft | 339 kts | 161° |
| 2026-04-24 19:42 | 59.28307 | -3.81773 | 31294 ft | 339 kts | 161° |
| 2026-04-24 19:42 | 59.24014 | -3.77943 | 31288 ft | 339 kts | 161° |
| 2026-04-24 19:43 | 59.19725 | -3.74128 | 31282 ft | 339 kts | 161° |
| 2026-04-24 19:43 | 59.15425 | -3.70313 | 31288 ft | 339 kts | 162° |
| 2026-04-24 19:44 | 59.11134 | -3.66516 | 31289 ft | 339 kts | 162° |
| 2026-04-24 19:44 | 59.06842 | -3.62730 | 31287 ft | 339 kts | 162° |
| 2026-04-24 19:45 | 59.02575 | -3.58977 | 31292 ft | 338 kts | 162° |
| 2026-04-24 19:45 | 58.98283 | -3.55211 | 31291 ft | 339 kts | 162° |
| 2026-04-24 19:46 | 58.93989 | -3.51452 | 31290 ft | 338 kts | 162° |
| 2026-04-24 19:46 | 58.89699 | -3.47706 | 31291 ft | 338 kts | 162° |
| 2026-04-24 19:47 | 58.85414 | -3.43976 | 31292 ft | 337 kts | 162° |
| 2026-04-24 19:47 | 58.81138 | -3.40262 | 31290 ft | 337 kts | 162° |
| 2026-04-24 19:48 | 58.76889 | -3.36584 | 31290 ft | 336 kts | 162° |
| 2026-04-24 19:48 | 58.70458 | -3.31034 | 31288 ft | 336 kts | 162° |
| 2026-04-24 19:49 | 58.61925 | -3.23705 | 31284 ft | 336 kts | 162° |
| 2026-04-24 19:50 | 58.53428 | -3.16450 | 31288 ft | 335 kts | 162° |
| 2026-04-24 19:51 | 58.47041 | -3.11021 | 31285 ft | 334 kts | 162° |
| 2026-04-24 19:52 | 58.40594 | -3.06080 | 31285 ft | 332 kts | 165° |
| 2026-04-24 19:52 | 58.36291 | -3.02858 | 31285 ft | 332 kts | 165° |
| 2026-04-24 19:53 | 58.31995 | -2.99659 | 31287 ft | 331 kts | 165° |
| 2026-04-24 19:54 | 58.25553 | -2.94873 | 31284 ft | 331 kts | 165° |
| 2026-04-24 19:54 | 58.21259 | -2.91690 | 31286 ft | 331 kts | 165° |
| 2026-04-24 19:55 | 58.18392 | -2.89571 | 31285 ft | 331 kts | 165° |
| 2026-04-24 19:55 | 58.12689 | -2.85366 | 31283 ft | 330 kts | 165° |
| 2026-04-24 19:56 | 58.08396 | -2.82210 | 31282 ft | 330 kts | 165° |
| 2026-04-24 19:56 | 58.04111 | -2.79067 | 31284 ft | 330 kts | 165° |
| 2026-04-24 19:57 | 57.99832 | -2.75939 | 31282 ft | 330 kts | 165° |
| 2026-04-24 19:57 | 57.95557 | -2.72820 | 31279 ft | 330 kts | 164° |
| 2026-04-24 19:58 | 57.91276 | -2.69705 | 31281 ft | 330 kts | 164° |
| 2026-04-24 19:58 | 57.86991 | -2.66597 | 31282 ft | 330 kts | 164° |
| 2026-04-24 19:59 | 57.82712 | -2.63502 | 31282 ft | 329 kts | 164° |
| 2026-04-24 19:59 | 57.78432 | -2.60413 | 31283 ft | 329 kts | 164° |
| 2026-04-24 20:00 | 57.74876 | -2.57853 | 31285 ft | 329 kts | 164° |
| 2026-04-24 20:00 | 57.70600 | -2.54782 | 31282 ft | 329 kts | 164° |
| 2026-04-24 20:01 | 57.66326 | -2.51720 | 31283 ft | 329 kts | 164° |
| 2026-04-24 20:01 | 57.62052 | -2.48662 | 31281 ft | 329 kts | 164° |
| 2026-04-24 20:02 | 57.57777 | -2.45620 | 31284 ft | 328 kts | 164° |
| 2026-04-24 20:02 | 57.53546 | -2.42607 | 31282 ft | 329 kts | 164° |
| 2026-04-24 20:03 | 57.49274 | -2.39577 | 31276 ft | 328 kts | 164° |
| 2026-04-24 20:03 | 57.45029 | -2.36572 | 31273 ft | 328 kts | 164° |
| 2026-04-24 20:04 | 57.40764 | -2.33557 | 31270 ft | 328 kts | 163° |
| 2026-04-24 20:04 | 57.36502 | -2.30558 | 31268 ft | 327 kts | 163° |
| 2026-04-24 20:04 | 57.34344 | -2.29359 | 31266 ft | 321 kts | 175° |
| 2026-04-24 20:05 | 57.32142 | -2.29076 | 31261 ft | 315 kts | 187° |
| 2026-04-24 20:05 | 57.30001 | -2.29643 | 31265 ft | 308 kts | 200° |
| 2026-04-24 20:05 | 57.28008 | -2.30984 | 31258 ft | 301 kts | 212° |
| 2026-04-24 20:05 | 57.26247 | -2.32975 | 31260 ft | 295 kts | 221° |
| 2026-04-24 20:06 | 57.24570 | -2.35187 | 31262 ft | 296 kts | 221° |
| 2026-04-24 20:06 | 57.22883 | -2.37354 | 31264 ft | 296 kts | 220° |
| 2026-04-24 20:06 | 57.21195 | -2.39534 | 31260 ft | 296 kts | 221° |
| 2026-04-24 20:06 | 57.19506 | -2.41732 | 31260 ft | 296 kts | 221° |
| 2026-04-24 20:07 | 57.18397 | -2.43173 | 31263 ft | 296 kts | 221° |
| 2026-04-24 20:07 | 57.16153 | -2.46074 | 31263 ft | 296 kts | 221° |
| 2026-04-24 20:07 | 57.14451 | -2.48274 | 31263 ft | 296 kts | 220° |
| 2026-04-24 20:07 | 57.12761 | -2.50459 | 31257 ft | 296 kts | 220° |
| 2026-04-24 20:08 | 57.11082 | -2.52621 | 30999 ft | 293 kts | 220° |
| 2026-04-24 20:08 | 57.09379 | -2.54814 | 30615 ft | 289 kts | 220° |
| 2026-04-24 20:08 | 57.07739 | -2.56924 | 30225 ft | 286 kts | 220° |
| 2026-04-24 20:08 | 57.06117 | -2.59008 | 29824 ft | 283 kts | 220° |
| 2026-04-24 20:09 | 57.04505 | -2.61081 | 29453 ft | 283 kts | 220° |
| 2026-04-24 20:09 | 57.02888 | -2.63157 | 29087 ft | 284 kts | 220° |
| 2026-04-24 20:09 | 57.01259 | -2.65245 | 28698 ft | 286 kts | 220° |
| 2026-04-24 20:09 | 56.99623 | -2.67336 | 28315 ft | 287 kts | 219° |
| 2026-04-24 20:10 | 56.97977 | -2.69438 | 27939 ft | 288 kts | 219° |
| 2026-04-24 20:10 | 56.96345 | -2.71524 | 27560 ft | 289 kts | 219° |
| 2026-04-24 20:10 | 56.94702 | -2.73618 | 27177 ft | 289 kts | 219° |
| 2026-04-24 20:10 | 56.93047 | -2.75724 | 26792 ft | 290 kts | 219° |
| 2026-04-24 20:11 | 56.91388 | -2.77832 | 26420 ft | 290 kts | 219° |
| 2026-04-24 20:11 | 56.89723 | -2.79943 | 26025 ft | 291 kts | 219° |
| 2026-04-24 20:11 | 56.88062 | -2.82053 | 25637 ft | 292 kts | 219° |
| 2026-04-24 20:11 | 56.86389 | -2.84180 | 25249 ft | 292 kts | 218° |
| 2026-04-24 20:12 | 56.84717 | -2.86301 | 24855 ft | 293 kts | 218° |
| 2026-04-24 20:12 | 56.83036 | -2.88425 | 24474 ft | 294 kts | 218° |
| 2026-04-24 20:12 | 56.81354 | -2.90555 | 24088 ft | 295 kts | 218° |
| 2026-04-24 20:12 | 56.79664 | -2.92691 | 23671 ft | 295 kts | 218° |
| 2026-04-24 20:13 | 56.77975 | -2.94819 | 23262 ft | 295 kts | 218° |
| 2026-04-24 20:13 | 56.76282 | -2.96952 | 22867 ft | 295 kts | 218° |
| 2026-04-24 20:13 | 56.74590 | -2.99081 | 22477 ft | 296 kts | 218° |
| 2026-04-24 20:13 | 56.72888 | -3.01219 | 22087 ft | 297 kts | 217° |
| 2026-04-24 20:14 | 56.71178 | -3.03358 | 21693 ft | 298 kts | 217° |
| 2026-04-24 20:14 | 56.69468 | -3.05499 | 21302 ft | 299 kts | 217° |
| 2026-04-24 20:14 | 56.67778 | -3.07615 | 20913 ft | 299 kts | 217° |
| 2026-04-24 20:14 | 56.66059 | -3.09767 | 20518 ft | 300 kts | 217° |
| 2026-04-24 20:15 | 56.64339 | -3.11917 | 20121 ft | 301 kts | 217° |
| 2026-04-24 20:15 | 56.62592 | -3.14096 | 19720 ft | 301 kts | 217° |
| 2026-04-24 20:15 | 56.60861 | -3.16255 | 19319 ft | 302 kts | 217° |
| 2026-04-24 20:15 | 56.59711 | -3.17687 | 19062 ft | 302 kts | 217° |
| 2026-04-24 20:16 | 56.57971 | -3.19852 | 18660 ft | 303 kts | 217° |
| 2026-04-24 20:16 | 56.55661 | -3.22724 | 18098 ft | 305 kts | 217° |
| 2026-04-24 20:16 | 56.53909 | -3.24901 | 17687 ft | 306 kts | 217° |
| 2026-04-24 20:16 | 56.52148 | -3.27082 | 17283 ft | 307 kts | 217° |
| 2026-04-24 20:17 | 56.50383 | -3.29269 | 16880 ft | 308 kts | 217° |
| 2026-04-24 20:17 | 56.46829 | -3.33666 | 16055 ft | 311 kts | 217° |
| 2026-04-24 20:17 | 56.45040 | -3.35872 | 15644 ft | 311 kts | 217° |
| 2026-04-24 20:18 | 56.43837 | -3.37380 | 15364 ft | 311 kts | 218° |
| 2026-04-24 20:18 | 56.41510 | -3.40427 | 14820 ft | 311 kts | 218° |
| 2026-04-24 20:18 | 56.39748 | -3.42686 | 14407 ft | 310 kts | 218° |
| 2026-04-24 20:18 | 56.37996 | -3.44951 | 13985 ft | 309 kts | 218° |
| 2026-04-24 20:19 | 56.36257 | -3.47212 | 13558 ft | 307 kts | 218° |
| 2026-04-24 20:19 | 56.34528 | -3.49451 | 13148 ft | 305 kts | 218° |
| 2026-04-24 20:19 | 56.32806 | -3.51667 | 12744 ft | 303 kts | 218° |
| 2026-04-24 20:19 | 56.31100 | -3.53867 | 12339 ft | 301 kts | 218° |
| 2026-04-24 20:20 | 56.29399 | -3.56060 | 11943 ft | 300 kts | 218° |
| 2026-04-24 20:20 | 56.27714 | -3.58227 | 11546 ft | 298 kts | 218° |
| 2026-04-24 20:20 | 56.26036 | -3.60383 | 11164 ft | 296 kts | 218° |
| 2026-04-24 20:20 | 56.24363 | -3.62531 | 10764 ft | 295 kts | 218° |
| 2026-04-24 20:21 | 56.22696 | -3.64670 | 10378 ft | 293 kts | 218° |
| 2026-04-24 20:21 | 56.21079 | -3.66739 | 9598 ft | 276 kts | 217° |
| 2026-04-24 20:21 | 56.19581 | -3.68857 | 8985 ft | 274 kts | 227° |
| 2026-04-24 20:21 | 56.18337 | -3.71459 | 8471 ft | 273 kts | 229° |
| 2026-04-24 20:22 | 56.17118 | -3.74000 | 7966 ft | 264 kts | 233° |
| 2026-04-24 20:22 | 56.16019 | -3.76584 | 7449 ft | 256 kts | 234° |
| 2026-04-24 20:22 | 56.14957 | -3.79141 | 6913 ft | 254 kts | 235° |
| 2026-04-24 20:22 | 56.13910 | -3.81669 | 6366 ft | 251 kts | 235° |
| 2026-04-24 20:23 | 56.12637 | -3.83770 | 5784 ft | 252 kts | 210° |
| 2026-04-24 20:23 | 56.10960 | -3.84537 | 5217 ft | 251 kts | 182° |
| 2026-04-24 20:23 | 56.09230 | -3.84335 | 4895 ft | 247 kts | 174° |
| 2026-04-24 20:23 | 56.07528 | -3.84010 | 4895 ft | 247 kts | 174° |
| 2026-04-24 20:24 | 56.06392 | -3.83788 | 4896 ft | 248 kts | 174° |
| 2026-04-24 20:24 | 56.04084 | -3.83335 | 4900 ft | 250 kts | 174° |
| 2026-04-24 20:24 | 56.02353 | -3.82996 | 4899 ft | 250 kts | 174° |
| 2026-04-24 20:24 | 56.00711 | -3.82674 | 3990 ft | 235 kts | 174° |
| 2026-04-24 20:25 | 55.99079 | -3.82354 | 3168 ft | 236 kts | 174° |
| 2026-04-24 20:25 | 55.97873 | -3.82116 | 3001 ft | 234 kts | 174° |
| 2026-04-24 20:25 | 55.96866 | -3.81914 | 2999 ft | 236 kts | 174° |
| 2026-04-24 20:25 | 55.95217 | -3.81585 | 3001 ft | 240 kts | 174° |
| 2026-04-24 20:26 | 55.93558 | -3.81256 | 3002 ft | 241 kts | 174° |
| 2026-04-24 20:26 | 55.91881 | -3.80927 | 3005 ft | 241 kts | 174° |
| 2026-04-24 20:26 | 55.90222 | -3.81078 | 2981 ft | 241 kts | 197° |
| 2026-04-24 20:26 | 55.88839 | -3.82673 | 2989 ft | 239 kts | 229° |
| 2026-04-24 20:27 | 55.88136 | -3.85314 | 2989 ft | 238 kts | 260° |
| 2026-04-24 20:27 | 55.88319 | -3.88198 | 2984 ft | 237 kts | 292° |
| 2026-04-24 20:27 | 55.89332 | -3.90476 | 2988 ft | 238 kts | 323° |
| 2026-04-24 20:27 | 55.90874 | -3.91457 | 2987 ft | 239 kts | 355° |
| 2026-04-24 20:28 | 55.92482 | -3.90836 | 2987 ft | 240 kts | 27° |
| 2026-04-24 20:28 | 55.93671 | -3.88793 | 2985 ft | 241 kts | 58° |
| 2026-04-24 20:28 | 55.94087 | -3.85933 | 2985 ft | 242 kts | 90° |
| 2026-04-24 20:28 | 55.93604 | -3.83118 | 2983 ft | 238 kts | 122° |
| 2026-04-24 20:29 | 55.92863 | -3.81716 | 2989 ft | 234 kts | 142° |
| 2026-04-24 20:29 | 55.91043 | -3.79646 | 2994 ft | 232 kts | 149° |
| 2026-04-24 20:29 | 55.89662 | -3.78155 | 2988 ft | 232 kts | 149° |
| 2026-04-24 20:29 | 55.88282 | -3.76675 | 2989 ft | 232 kts | 149° |
| 2026-04-24 20:30 | 55.86901 | -3.75189 | 2997 ft | 232 kts | 149° |
| 2026-04-24 20:30 | 55.85590 | -3.73536 | 2988 ft | 232 kts | 134° |
| 2026-04-24 20:30 | 55.84873 | -3.71024 | 2986 ft | 226 kts | 101° |
| 2026-04-24 20:30 | 55.84798 | -3.69252 | 2992 ft | 206 kts | 90° |
| 2026-04-24 20:31 | 55.84815 | -3.66287 | 2990 ft | 175 kts | 88° |
| 2026-04-24 20:31 | 55.85116 | -3.64555 | 2999 ft | 164 kts | 54° |
| 2026-04-24 20:31 | 55.85958 | -3.63288 | 3001 ft | 155 kts | 38° |
| 2026-04-24 20:31 | 55.86596 | -3.61799 | 2995 ft | 150 kts | 57° |
| 2026-04-24 20:32 | 55.87162 | -3.60251 | 2921 ft | 149 kts | 56° |
| 2026-04-24 20:32 | 55.87714 | -3.58690 | 2728 ft | 147 kts | 57° |
| 2026-04-24 20:32 | 55.88210 | -3.57234 | 2537 ft | 127 kts | 58° |
| 2026-04-24 20:32 | 55.88633 | -3.55994 | 2379 ft | 108 kts | 58° |
| 2026-04-24 20:33 | 55.89008 | -3.54884 | 2239 ft | 103 kts | 58° |
| 2026-04-24 20:33 | 55.89381 | -3.53789 | 2106 ft | 104 kts | 58° |
| 2026-04-24 20:33 | 55.89629 | -3.53054 | 2013 ft | 105 kts | 58° |
| 2026-04-24 20:33 | 55.90132 | -3.51572 | 1823 ft | 105 kts | 58° |
| 2026-04-24 20:34 | 55.90387 | -3.50820 | 1728 ft | 105 kts | 58° |
| 2026-04-24 20:34 | 55.90765 | -3.49708 | 1585 ft | 104 kts | 58° |
| 2026-04-24 20:34 | 55.91263 | -3.48249 | 1396 ft | 103 kts | 58° |
| 2026-04-24 20:34 | 55.91510 | -3.47519 | 1299 ft | 99 kts | 59° |
| 2026-04-24 20:35 | 55.91855 | -3.46498 | 1166 ft | 94 kts | 58° |
| 2026-04-24 20:35 | 55.92181 | -3.45527 | 1042 ft | 90 kts | 58° |
| 2026-04-24 20:35 | 55.92507 | -3.44590 | 917 ft | 88 kts | 59° |
| 2026-04-24 20:35 | 55.92816 | -3.43664 | 801 ft | 87 kts | 58° |
| 2026-04-24 20:36 | 55.93124 | -3.42751 | 684 ft | 85 kts | 59° |
| 2026-04-24 20:36 | 55.93435 | -3.41860 | 572 ft | 84 kts | 57° |
| 2026-04-24 20:36 | 55.93733 | -3.40967 | 460 ft | 83 kts | 59° |
| 2026-04-24 20:36 | 55.94033 | -3.40089 | 353 ft | 82 kts | 59° |
| 2026-04-24 20:37 | 55.94334 | -3.39197 | 209 ft | 85 kts | 58° |
| 2026-04-24 20:37 | 55.94643 | -3.38302 | 108 ft | 75 kts | 59° |
| 2026-04-24 20:37 | 55.94797 | -3.37844 | 109 ft | 29 kts | 58° |
| 2026-04-24 20:37 | 55.94908 | -3.37521 | 106 ft | 31 kts | 58° |
| 2026-04-24 20:38 | 55.95010 | -3.37225 | 106 ft | 26 kts | 58° |
| 2026-04-24 20:38 | 55.95082 | -3.37009 | 108 ft | 36 kts | 61° |
| 2026-04-24 20:38 | 55.95253 | -3.36504 | 106 ft | 14 kts | 59° |
| 2026-04-24 20:38 | 55.95243 | -3.36407 | 106 ft | 6 kts | 144° |
| 2026-04-24 20:39 | 55.95233 | -3.36395 | 107 ft | 0 kts | 145° |
| 2026-04-24 20:39 | 55.95218 | -3.36376 | 108 ft | 8 kts | 152° |
| 2026-04-24 20:39 | 55.95185 | -3.36344 | 109 ft | 3 kts | 150° |
| 2026-04-24 20:40 | 55.95150 | -3.36304 | 110 ft | 11 kts | 141° |
| 2026-04-24 20:40 | 55.95159 | -3.36209 | 110 ft | 6 kts | 68° |
| 2026-04-24 20:40 | 55.95171 | -3.36168 | 110 ft | 1 kts | 54° |
| 2026-04-24 20:40 | 55.95187 | -3.36123 | 110 ft | 7 kts | 59° |
| 2026-04-24 20:41 | 55.95207 | -3.36064 | 110 ft | 5 kts | 59° |
| 2026-04-24 20:41 | 55.95199 | -3.35981 | 110 ft | 8 kts | 146° |
| 2026-04-24 20:41 | 55.95158 | -3.35936 | 110 ft | 7 kts | 148° |
| 2026-04-24 20:41 | 55.95120 | -3.35890 | 110 ft | 5 kts | 102° |
| 2026-04-24 20:42 | 55.95105 | -3.35818 | 110 ft | 5 kts | 118° |
| 2026-04-24 20:42 | 55.95093 | -3.35781 | 110 ft | 0 kts | 136° |
| 2026-04-24 20:42 | 55.95069 | -3.35738 | 110 ft | 14 kts | 120° |
| 2026-04-24 20:42 | 55.95017 | -3.35570 | 110 ft | 16 kts | 118° |
| 2026-04-24 20:43 | 55.94965 | -3.35398 | 110 ft | 16 kts | 118° |
| 2026-04-24 20:43 | 55.94914 | -3.35230 | 110 ft | 14 kts | 117° |
| 2026-04-24 20:43 | 55.94874 | -3.35101 | 110 ft | 10 kts | 121° |
| 2026-04-24 20:43 | 55.94850 | -3.35027 | 110 ft | 0 kts | 120° |
| 2026-04-24 20:45 | 55.94832 | -3.34969 | 110 ft | 14 kts | 118° |
| 2026-04-24 20:46 | 55.94789 | -3.34832 | 110 ft | 10 kts | 133° |
| 2026-04-24 20:46 | 55.94760 | -3.34756 | 110 ft | 6 kts | 69° |
| 2026-04-24 20:46 | 55.94781 | -3.34693 | 110 ft | 6 kts | 59° |
| 2026-04-24 20:46 | 55.94803 | -3.34630 | 110 ft | 9 kts | 56° |
| 2026-04-24 20:47 | 55.94790 | -3.34582 | 110 ft | 6 kts | 151° |
| 2026-04-24 20:47 | 55.94758 | -3.34550 | 110 ft | 0 kts | 149° |